sensor_id;sensor_type;location;lat;lon;timestamp;temperature;humidity
52397;DHT22;38322;53.108;6.308;2023-09-08T05:03:14;16.40;99.90
52397;DHT22;38322;53.108;6.308;2023-09-08T05:05:40;16.40;99.90
52397;DHT22;38322;53.108;6.308;2023-09-08T05:08:06;16.40;99.90
52397;DHT22;38322;53.108;6.308;2023-09-08T05:10:32;16.40;99.90
52397;DHT22;38322;53.108;6.308;2023-09-08T05:12:58;16.40;99.90
52397;DHT22;38322;53.108;6.308;2023-09-08T05:15:24;16.40;99.90
52397;DHT22;38322;53.108;6.308;2023-09-08T05:17:50;16.50;99.90
52397;DHT22;38322;53.108;6.308;2023-09-08T05:20:16;16.50;99.90
52397;DHT22;38322;53.108;6.308;2023-09-08T05:22:42;16.40;99.90
52397;DHT22;38322;53.108;6.308;2023-09-08T05:25:08;16.50;99.90
52397;DHT22;38322;53.108;6.308;2023-09-08T05:27:34;16.50;99.90
52397;DHT22;38322;53.108;6.308;2023-09-08T05:30:00;16.60;99.90
52397;DHT22;38322;53.108;6.308;2023-09-08T05:32:26;16.70;99.90
52397;DHT22;38322;53.108;6.308;2023-09-08T05:34:52;16.70;99.90
52397;DHT22;38322;53.108;6.308;2023-09-08T05:37:18;16.80;99.90
52397;DHT22;38322;53.108;6.308;2023-09-08T05:39:43;16.80;99.90
52397;DHT22;38322;53.108;6.308;2023-09-08T05:42:09;16.80;99.90
52397;DHT22;38322;53.108;6.308;2023-09-08T05:44:35;16.90;99.90
52397;DHT22;38322;53.108;6.308;2023-09-08T05:47:01;16.90;99.90
52397;DHT22;38322;53.108;6.308;2023-09-08T05:49:27;17.10;99.90
52397;DHT22;38322;53.108;6.308;2023-09-08T05:51:53;17.10;99.90
52397;DHT22;38322;53.108;6.308;2023-09-08T05:54:19;17.20;99.90
52397;DHT22;38322;53.108;6.308;2023-09-08T05:56:44;17.30;99.90
52397;DHT22;38322;53.108;6.308;2023-09-08T05:59:10;17.30;99.90
52397;DHT22;38322;53.108;6.308;2023-09-08T06:01:36;17.40;99.90
52397;DHT22;38322;53.108;6.308;2023-09-08T06:04:02;17.50;99.90
52397;DHT22;38322;53.108;6.308;2023-09-08T06:06:28;17.60;99.90
52397;DHT22;38322;53.108;6.308;2023-09-08T06:08:54;17.70;99.90
52397;DHT22;38322;53.108;6.308;2023-09-08T06:11:20;17.80;99.90
52397;DHT22;38322;53.108;6.308;2023-09-08T06:13:47;17.90;99.90
52397;DHT22;38322;53.108;6.308;2023-09-08T06:16:13;18.00;99.90
52397;DHT22;38322;53.108;6.308;2023-09-08T06:18:39;18.10;99.90
52397;DHT22;38322;53.108;6.308;2023-09-08T06:21:06;18.10;99.90
52397;DHT22;38322;53.108;6.308;2023-09-08T06:23:33;18.20;99.90
52397;DHT22;38322;53.108;6.308;2023-09-08T06:25:59;18.20;99.90
52397;DHT22;38322;53.108;6.308;2023-09-08T06:28:26;18.30;99.90
52397;DHT22;38322;53.108;6.308;2023-09-08T06:30:53;18.40;99.90
52397;DHT22;38322;53.108;6.308;2023-09-08T06:33:19;18.40;99.90
52397;DHT22;38322;53.108;6.308;2023-09-08T06:35:47;18.50;99.90
52397;DHT22;38322;53.108;6.308;2023-09-08T06:38:13;18.60;99.90
52397;DHT22;38322;53.108;6.308;2023-09-08T06:40:39;18.70;99.90
52397;DHT22;38322;53.108;6.308;2023-09-08T06:43:05;18.80;99.90
52397;DHT22;38322;53.108;6.308;2023-09-08T06:45:31;18.80;99.90
52397;DHT22;38322;53.108;6.308;2023-09-08T06:47:56;18.90;99.90
52397;DHT22;38322;53.108;6.308;2023-09-08T06:50:23;18.90;99.90
52397;DHT22;38322;53.108;6.308;2023-09-08T06:52:49;19.00;99.90
52397;DHT22;38322;53.108;6.308;2023-09-08T06:55:16;19.00;99.90
52397;DHT22;38322;53.108;6.308;2023-09-08T06:57:43;19.10;99.90
52397;DHT22;38322;53.108;6.308;2023-09-08T07:00:09;19.10;99.90
52397;DHT22;38322;53.108;6.308;2023-09-08T07:02:37;19.10;99.90
52397;DHT22;38322;53.108;6.308;2023-09-08T07:05:04;19.20;99.90
52397;DHT22;38322;53.108;6.308;2023-09-08T07:07:36;19.30;99.90
52397;DHT22;38322;53.108;6.308;2023-09-08T07:10:03;19.40;99.90
52397;DHT22;38322;53.108;6.308;2023-09-08T07:12:30;19.50;99.90
52397;DHT22;38322;53.108;6.308;2023-09-08T07:14:56;19.50;99.90
52397;DHT22;38322;53.108;6.308;2023-09-08T07:17:22;19.60;99.90
52397;DHT22;38322;53.108;6.308;2023-09-08T07:19:50;19.70;99.90
52397;DHT22;38322;53.108;6.308;2023-09-08T07:22:15;19.70;99.90
52397;DHT22;38322;53.108;6.308;2023-09-08T07:24:41;19.70;99.90
52397;DHT22;38322;53.108;6.308;2023-09-08T07:27:07;19.90;99.90
52397;DHT22;38322;53.108;6.308;2023-09-08T07:29:33;19.90;99.90
52397;DHT22;38322;53.108;6.308;2023-09-08T07:32:00;20.00;99.90
52397;DHT22;38322;53.108;6.308;2023-09-08T07:34:25;20.10;99.90
52397;DHT22;38322;53.108;6.308;2023-09-08T07:36:51;20.10;99.90
52397;DHT22;38322;53.108;6.308;2023-09-08T07:39:17;20.20;99.90
52397;DHT22;38322;53.108;6.308;2023-09-08T07:41:43;20.30;99.90
52397;DHT22;38322;53.108;6.308;2023-09-08T07:44:09;20.30;99.90
52397;DHT22;38322;53.108;6.308;2023-09-08T07:46:35;20.40;99.90
52397;DHT22;38322;53.108;6.308;2023-09-08T07:49:01;20.40;99.90
52397;DHT22;38322;53.108;6.308;2023-09-08T07:51:27;20.50;99.90
52397;DHT22;38322;53.108;6.308;2023-09-08T07:53:53;20.60;99.90
52397;DHT22;38322;53.108;6.308;2023-09-08T07:56:19;20.70;99.90
52397;DHT22;38322;53.108;6.308;2023-09-08T07:58:45;20.80;99.90
52397;DHT22;38322;53.108;6.308;2023-09-08T08:01:13;20.80;99.90
52397;DHT22;38322;53.108;6.308;2023-09-08T08:03:39;21.00;99.90
52397;DHT22;38322;53.108;6.308;2023-09-08T08:06:05;21.00;99.90
52397;DHT22;38322;53.108;6.308;2023-09-08T08:08:31;21.10;99.90
52397;DHT22;38322;53.108;6.308;2023-09-08T08:10:58;21.10;99.90
52397;DHT22;38322;53.108;6.308;2023-09-08T08:13:24;21.30;99.90
52397;DHT22;38322;53.108;6.308;2023-09-08T08:15:50;21.30;99.90
52397;DHT22;38322;53.108;6.308;2023-09-08T08:18:16;21.40;99.90
52397;DHT22;38322;53.108;6.308;2023-09-08T08:20:42;21.40;99.90
52397;DHT22;38322;53.108;6.308;2023-09-08T08:23:08;21.50;99.90
52397;DHT22;38322;53.108;6.308;2023-09-08T08:25:34;21.60;99.90
52397;DHT22;38322;53.108;6.308;2023-09-08T08:28:00;21.60;99.90
52397;DHT22;38322;53.108;6.308;2023-09-08T08:30:27;21.70;99.90
52397;DHT22;38322;53.108;6.308;2023-09-08T08:32:53;21.70;99.90
52397;DHT22;38322;53.108;6.308;2023-09-08T08:35:20;21.80;99.90
52397;DHT22;38322;53.108;6.308;2023-09-08T08:37:46;21.90;99.90
52397;DHT22;38322;53.108;6.308;2023-09-08T08:40:12;22.00;99.90
52397;DHT22;38322;53.108;6.308;2023-09-08T08:42:39;22.00;99.90
52397;DHT22;38322;53.108;6.308;2023-09-08T08:45:06;22.10;99.90
52397;DHT22;38322;53.108;6.308;2023-09-08T08:47:32;22.10;99.90
52397;DHT22;38322;53.108;6.308;2023-09-08T08:49:59;22.20;99.90
52397;DHT22;38322;53.108;6.308;2023-09-08T08:52:27;22.30;99.90
52397;DHT22;38322;53.108;6.308;2023-09-08T08:54:54;22.30;99.90
52397;DHT22;38322;53.108;6.308;2023-09-08T08:57:22;22.30;99.90
52397;DHT22;38322;53.108;6.308;2023-09-08T08:59:49;22.50;99.90
52397;DHT22;38322;53.108;6.308;2023-09-08T09:02:18;22.50;99.90
52397;DHT22;38322;53.108;6.308;2023-09-08T09:04:45;22.60;99.90
52397;DHT22;38322;53.108;6.308;2023-09-08T09:07:11;22.70;99.90
52397;DHT22;38322;53.108;6.308;2023-09-08T09:09:37;22.70;99.90
52397;DHT22;38322;53.108;6.308;2023-09-08T09:12:06;22.80;99.90
52397;DHT22;38322;53.108;6.308;2023-09-08T09:14:32;22.90;99.90
52397;DHT22;38322;53.108;6.308;2023-09-08T09:16:59;22.90;99.90
52397;DHT22;38322;53.108;6.308;2023-09-08T09:19:26;23.00;99.90
52397;DHT22;38322;53.108;6.308;2023-09-08T09:21:56;23.10;99.90
52397;DHT22;38322;53.108;6.308;2023-09-08T09:24:40;23.20;99.90
52397;DHT22;38322;53.108;6.308;2023-09-08T09:27:10;23.30;99.90
52397;DHT22;38322;53.108;6.308;2023-09-08T09:29:47;23.30;99.90
52397;DHT22;38322;53.108;6.308;2023-09-08T09:32:13;23.40;99.90
52397;DHT22;38322;53.108;6.308;2023-09-08T09:34:50;23.50;99.90
52397;DHT22;38322;53.108;6.308;2023-09-08T09:37:19;23.50;99.90
52397;DHT22;38322;53.108;6.308;2023-09-08T09:39:49;23.60;99.90
52397;DHT22;38322;53.108;6.308;2023-09-08T09:42:15;23.70;99.90
52397;DHT22;38322;53.108;6.308;2023-09-08T09:44:41;23.80;99.90
52397;DHT22;38322;53.108;6.308;2023-09-08T09:47:07;23.80;99.90
52397;DHT22;38322;53.108;6.308;2023-09-08T09:49:42;23.90;99.90
52397;DHT22;38322;53.108;6.308;2023-09-08T09:52:08;24.00;99.90
52397;DHT22;38322;53.108;6.308;2023-09-08T09:54:34;24.00;99.90
52397;DHT22;38322;53.108;6.308;2023-09-08T09:57:00;24.10;99.90
52397;DHT22;38322;53.108;6.308;2023-09-08T09:59:27;24.10;99.90
52397;DHT22;38322;53.108;6.308;2023-09-08T10:01:53;24.20;99.90
52397;DHT22;38322;53.108;6.308;2023-09-08T10:04:19;24.30;99.90
52397;DHT22;38322;53.108;6.308;2023-09-08T10:06:46;24.30;99.90
52397;DHT22;38322;53.108;6.308;2023-09-08T10:09:12;24.40;99.90
52397;DHT22;38322;53.108;6.308;2023-09-08T10:11:46;24.40;99.90
52397;DHT22;38322;53.108;6.308;2023-09-08T10:14:13;24.50;99.90
52397;DHT22;38322;53.108;6.308;2023-09-08T10:16:40;24.60;99.90
52397;DHT22;38322;53.108;6.308;2023-09-08T10:19:09;24.70;99.90
52397;DHT22;38322;53.108;6.308;2023-09-08T10:21:40;24.70;99.90
52397;DHT22;38322;53.108;6.308;2023-09-08T10:24:15;24.80;99.90
52397;DHT22;38322;53.108;6.308;2023-09-08T10:26:46;24.80;99.90
52397;DHT22;38322;53.108;6.308;2023-09-08T10:29:15;24.90;99.90
52397;DHT22;38322;53.108;6.308;2023-09-08T10:31:43;25.00;99.90
52397;DHT22;38322;53.108;6.308;2023-09-08T10:34:10;25.00;99.90
52397;DHT22;38322;53.108;6.308;2023-09-08T10:36:36;25.10;99.90
52397;DHT22;38322;53.108;6.308;2023-09-08T10:39:31;25.20;99.90
52397;DHT22;38322;53.108;6.308;2023-09-08T10:44:44;25.40;99.90
52397;DHT22;38322;53.108;6.308;2023-09-08T10:47:10;25.40;99.90
52397;DHT22;38322;53.108;6.308;2023-09-08T10:49:36;25.50;99.90
52397;DHT22;38322;53.108;6.308;2023-09-08T10:52:11;25.50;99.90
52397;DHT22;38322;53.108;6.308;2023-09-08T10:54:51;25.60;99.90
52397;DHT22;38322;53.108;6.308;2023-09-08T10:57:20;25.70;99.90
52397;DHT22;38322;53.108;6.308;2023-09-08T10:59:55;25.70;99.90
52397;DHT22;38322;53.108;6.308;2023-09-08T11:02:41;25.80;99.90
52397;DHT22;38322;53.108;6.308;2023-09-08T11:05:09;25.90;99.90
52397;DHT22;38322;53.108;6.308;2023-09-08T11:07:37;26.00;99.90
52397;DHT22;38322;53.108;6.308;2023-09-08T11:10:03;26.10;99.90
52397;DHT22;38322;53.108;6.308;2023-09-08T11:12:30;26.10;99.90
52397;DHT22;38322;53.108;6.308;2023-09-08T11:14:58;26.20;99.90
52397;DHT22;38322;53.108;6.308;2023-09-08T11:17:27;26.20;99.90
52397;DHT22;38322;53.108;6.308;2023-09-08T11:19:54;26.20;99.90
52397;DHT22;38322;53.108;6.308;2023-09-08T11:22:23;26.40;99.90
52397;DHT22;38322;53.108;6.308;2023-09-08T11:24:51;26.50;99.90
52397;DHT22;38322;53.108;6.308;2023-09-08T11:27:17;26.50;99.90
52397;DHT22;38322;53.108;6.308;2023-09-08T11:29:44;26.60;99.90
52397;DHT22;38322;53.108;6.308;2023-09-08T11:32:10;26.60;99.90
52397;DHT22;38322;53.108;6.308;2023-09-08T11:34:37;26.60;99.90
52397;DHT22;38322;53.108;6.308;2023-09-08T11:37:11;26.70;99.90
52397;DHT22;38322;53.108;6.308;2023-09-08T11:39:39;26.80;99.90
52397;DHT22;38322;53.108;6.308;2023-09-08T11:42:07;26.90;99.90
52397;DHT22;38322;53.108;6.308;2023-09-08T11:44:35;26.90;99.90
52397;DHT22;38322;53.108;6.308;2023-09-08T11:47:02;27.00;99.90
52397;DHT22;38322;53.108;6.308;2023-09-08T11:49:37;27.10;99.90
52397;DHT22;38322;53.108;6.308;2023-09-08T11:52:04;27.10;99.90
52397;DHT22;38322;53.108;6.308;2023-09-08T11:54:32;27.20;99.90
52397;DHT22;38322;53.108;6.308;2023-09-08T11:57:01;27.30;99.90
52397;DHT22;38322;53.108;6.308;2023-09-08T11:59:28;27.40;99.90
52397;DHT22;38322;53.108;6.308;2023-09-08T12:01:56;27.40;99.90
52397;DHT22;38322;53.108;6.308;2023-09-08T12:04:22;27.50;99.90
52397;DHT22;38322;53.108;6.308;2023-09-08T12:06:49;27.50;99.90
52397;DHT22;38322;53.108;6.308;2023-09-08T12:09:15;27.60;99.90
52397;DHT22;38322;53.108;6.308;2023-09-08T12:11:42;27.70;99.90
52397;DHT22;38322;53.108;6.308;2023-09-08T12:14:11;27.80;99.90
52397;DHT22;38322;53.108;6.308;2023-09-08T12:16:37;27.90;99.90
52397;DHT22;38322;53.108;6.308;2023-09-08T12:19:03;28.00;99.90
52397;DHT22;38322;53.108;6.308;2023-09-08T12:21:29;28.10;99.90
52397;DHT22;38322;53.108;6.308;2023-09-08T12:23:57;28.20;99.90
52397;DHT22;38322;53.108;6.308;2023-09-08T12:26:25;28.30;99.90
52397;DHT22;38322;53.108;6.308;2023-09-08T12:28:51;28.40;99.90
52397;DHT22;38322;53.108;6.308;2023-09-08T12:31:17;28.40;99.90
52397;DHT22;38322;53.108;6.308;2023-09-08T12:33:44;28.40;99.90
52397;DHT22;38322;53.108;6.308;2023-09-08T12:36:16;28.50;99.90
52397;DHT22;38322;53.108;6.308;2023-09-08T12:38:51;28.60;99.90
52397;DHT22;38322;53.108;6.308;2023-09-08T12:41:17;28.60;99.90
52397;DHT22;38322;53.108;6.308;2023-09-08T12:43:44;28.70;99.90
52397;DHT22;38322;53.108;6.308;2023-09-08T12:46:10;28.70;99.90
52397;DHT22;38322;53.108;6.308;2023-09-08T12:48:36;28.80;99.90
52397;DHT22;38322;53.108;6.308;2023-09-08T12:51:01;28.90;99.90
52397;DHT22;38322;53.108;6.308;2023-09-08T12:53:33;28.90;99.90
52397;DHT22;38322;53.108;6.308;2023-09-08T12:55:59;29.00;99.90
52397;DHT22;38322;53.108;6.308;2023-09-08T12:58:24;29.00;99.90
52397;DHT22;38322;53.108;6.308;2023-09-08T13:00:50;29.10;99.60
52397;DHT22;38322;53.108;6.308;2023-09-08T13:03:16;29.20;99.30
52397;DHT22;38322;53.108;6.308;2023-09-08T13:05:42;29.20;99.00
52397;DHT22;38322;53.108;6.308;2023-09-08T13:08:08;29.30;98.80
52397;DHT22;38322;53.108;6.308;2023-09-08T13:10:34;29.30;98.80
52397;DHT22;38322;53.108;6.308;2023-09-08T13:13:00;29.40;98.80
52397;DHT22;38322;53.108;6.308;2023-09-08T13:15:26;29.40;98.50
52397;DHT22;38322;53.108;6.308;2023-09-08T13:17:52;29.50;98.30
52397;DHT22;38322;53.108;6.308;2023-09-08T13:20:18;29.50;98.00
52397;DHT22;38322;53.108;6.308;2023-09-08T13:22:44;29.60;98.00
52397;DHT22;38322;53.108;6.308;2023-09-08T13:25:10;29.60;97.70
52397;DHT22;38322;53.108;6.308;2023-09-08T13:27:35;29.60;97.70
52397;DHT22;38322;53.108;6.308;2023-09-08T13:30:10;29.70;97.60
52397;DHT22;38322;53.108;6.308;2023-09-08T13:32:37;29.80;97.40
52397;DHT22;38322;53.108;6.308;2023-09-08T13:35:04;29.70;97.30
52397;DHT22;38322;53.108;6.308;2023-09-08T13:37:30;29.80;97.30
52397;DHT22;38322;53.108;6.308;2023-09-08T13:39:57;29.90;97.00
52397;DHT22;38322;53.108;6.308;2023-09-08T13:42:22;29.90;97.50
52397;DHT22;38322;53.108;6.308;2023-09-08T13:44:48;30.00;97.40
52397;DHT22;38322;53.108;6.308;2023-09-08T13:47:15;30.00;97.50
52397;DHT22;38322;53.108;6.308;2023-09-08T13:49:40;30.10;97.20
52397;DHT22;38322;53.108;6.308;2023-09-08T13:52:06;30.20;97.10
52397;DHT22;38322;53.108;6.308;2023-09-08T13:54:32;30.30;97.40
52397;DHT22;38322;53.108;6.308;2023-09-08T13:57:02;30.30;97.60
52397;DHT22;38322;53.108;6.308;2023-09-08T13:59:29;30.30;97.60
52397;DHT22;38322;53.108;6.308;2023-09-08T14:01:55;30.30;97.00
52397;DHT22;38322;53.108;6.308;2023-09-08T14:04:23;30.40;96.60
52397;DHT22;38322;53.108;6.308;2023-09-08T14:06:49;30.50;96.50
52397;DHT22;38322;53.108;6.308;2023-09-08T14:09:16;30.50;96.70
52397;DHT22;38322;53.108;6.308;2023-09-08T14:11:41;30.50;97.00
52397;DHT22;38322;53.108;6.308;2023-09-08T14:14:07;30.60;96.80
52397;DHT22;38322;53.108;6.308;2023-09-08T14:16:33;30.70;96.70
52397;DHT22;38322;53.108;6.308;2023-09-08T14:18:59;30.70;96.80
52397;DHT22;38322;53.108;6.308;2023-09-08T14:21:25;30.80;96.80
52397;DHT22;38322;53.108;6.308;2023-09-08T14:23:51;30.70;96.40
52397;DHT22;38322;53.108;6.308;2023-09-08T14:26:16;30.70;96.20
52397;DHT22;38322;53.108;6.308;2023-09-08T14:28:42;30.70;96.10
52397;DHT22;38322;53.108;6.308;2023-09-08T14:31:08;30.70;96.40
52397;DHT22;38322;53.108;6.308;2023-09-08T14:33:34;30.70;96.50
52397;DHT22;38322;53.108;6.308;2023-09-08T14:36:00;30.70;96.20
52397;DHT22;38322;53.108;6.308;2023-09-08T14:38:26;30.80;95.80
52397;DHT22;38322;53.108;6.308;2023-09-08T14:40:54;30.70;95.30
52397;DHT22;38322;53.108;6.308;2023-09-08T14:43:21;30.70;95.80
52397;DHT22;38322;53.108;6.308;2023-09-08T14:45:47;30.70;96.10
52397;DHT22;38322;53.108;6.308;2023-09-08T14:48:12;30.80;96.20
52397;DHT22;38322;53.108;6.308;2023-09-08T14:50:38;30.80;96.20
52397;DHT22;38322;53.108;6.308;2023-09-08T14:53:04;30.80;96.60
52397;DHT22;38322;53.108;6.308;2023-09-08T14:55:32;30.80;96.50
52397;DHT22;38322;53.108;6.308;2023-09-08T14:57:58;30.70;96.50
52397;DHT22;38322;53.108;6.308;2023-09-08T15:00:24;30.40;96.20
52397;DHT22;38322;53.108;6.308;2023-09-08T15:02:50;30.50;97.00
52397;DHT22;38322;53.108;6.308;2023-09-08T15:05:16;30.60;97.00
52397;DHT22;38322;53.108;6.308;2023-09-08T15:07:42;30.60;96.70
52397;DHT22;38322;53.108;6.308;2023-09-08T15:10:08;30.70;96.90
52397;DHT22;38322;53.108;6.308;2023-09-08T15:12:34;30.70;96.90
52397;DHT22;38322;53.108;6.308;2023-09-08T15:15:00;30.70;96.70
52397;DHT22;38322;53.108;6.308;2023-09-08T15:17:26;30.70;97.10
52397;DHT22;38322;53.108;6.308;2023-09-08T15:19:51;30.80;97.00
52397;DHT22;38322;53.108;6.308;2023-09-08T15:22:17;30.70;96.90
52397;DHT22;38322;53.108;6.308;2023-09-08T15:24:43;30.70;97.10
52397;DHT22;38322;53.108;6.308;2023-09-08T15:27:09;30.70;97.10
52397;DHT22;38322;53.108;6.308;2023-09-08T15:29:35;30.50;96.90
52397;DHT22;38322;53.108;6.308;2023-09-08T15:32:02;30.30;96.80
52397;DHT22;38322;53.108;6.308;2023-09-08T15:34:29;30.20;96.90
52397;DHT22;38322;53.108;6.308;2023-09-08T15:36:54;30.20;96.90
52397;DHT22;38322;53.108;6.308;2023-09-08T15:39:20;30.10;96.90
52397;DHT22;38322;53.108;6.308;2023-09-08T15:41:47;30.10;97.50
52397;DHT22;38322;53.108;6.308;2023-09-08T15:44:12;30.10;98.00
52397;DHT22;38322;53.108;6.308;2023-09-08T15:46:40;30.10;98.10
52397;DHT22;38322;53.108;6.308;2023-09-08T15:49:06;30.00;98.30
52397;DHT22;38322;53.108;6.308;2023-09-08T15:51:32;29.90;98.20
52397;DHT22;38322;53.108;6.308;2023-09-08T15:53:58;29.80;97.90
52397;DHT22;38322;53.108;6.308;2023-09-08T15:56:24;29.70;98.20
52397;DHT22;38322;53.108;6.308;2023-09-08T15:58:50;29.60;98.60
52397;DHT22;38322;53.108;6.308;2023-09-08T16:01:16;29.60;98.60
52397;DHT22;38322;53.108;6.308;2023-09-08T16:03:42;29.50;97.60
52397;DHT22;38322;53.108;6.308;2023-09-08T16:06:08;29.50;97.90
52397;DHT22;38322;53.108;6.308;2023-09-08T16:08:34;29.40;99.10
52397;DHT22;38322;53.108;6.308;2023-09-08T16:11:00;29.40;99.30
52397;DHT22;38322;53.108;6.308;2023-09-08T16:13:29;29.30;99.80
52397;DHT22;38322;53.108;6.308;2023-09-08T16:15:55;29.30;99.30
52397;DHT22;38322;53.108;6.308;2023-09-08T16:18:21;29.10;99.10
52397;DHT22;38322;53.108;6.308;2023-09-08T16:20:48;29.10;99.60
52397;DHT22;38322;53.108;6.308;2023-09-08T16:23:14;29.00;99.60
52397;DHT22;38322;53.108;6.308;2023-09-08T16:25:40;28.90;99.90
52397;DHT22;38322;53.108;6.308;2023-09-08T16:28:06;28.80;99.90
52397;DHT22;38322;53.108;6.308;2023-09-08T16:30:32;28.70;99.90
52397;DHT22;38322;53.108;6.308;2023-09-08T16:32:58;28.60;99.90
52397;DHT22;38322;53.108;6.308;2023-09-08T16:35:25;28.50;99.90
52397;DHT22;38322;53.108;6.308;2023-09-08T16:37:51;28.40;99.90
52397;DHT22;38322;53.108;6.308;2023-09-08T16:40:17;28.40;99.90
52397;DHT22;38322;53.108;6.308;2023-09-08T16:42:43;28.30;99.90
52397;DHT22;38322;53.108;6.308;2023-09-08T16:45:09;28.20;99.90
52397;DHT22;38322;53.108;6.308;2023-09-08T16:47:36;28.10;99.90
52397;DHT22;38322;53.108;6.308;2023-09-08T16:50:03;28.00;99.90
52397;DHT22;38322;53.108;6.308;2023-09-08T16:52:30;27.90;99.90
52397;DHT22;38322;53.108;6.308;2023-09-08T16:54:56;27.90;99.90
52397;DHT22;38322;53.108;6.308;2023-09-08T16:57:22;27.80;99.90
52397;DHT22;38322;53.108;6.308;2023-09-08T16:59:48;27.80;99.90
52397;DHT22;38322;53.108;6.308;2023-09-08T17:02:14;27.70;99.90
52397;DHT22;38322;53.108;6.308;2023-09-08T17:04:41;27.60;99.90
52397;DHT22;38322;53.108;6.308;2023-09-08T17:07:10;27.40;99.90
52397;DHT22;38322;53.108;6.308;2023-09-08T17:09:36;27.30;99.90
52397;DHT22;38322;53.108;6.308;2023-09-08T17:12:02;27.20;99.90
52397;DHT22;38322;53.108;6.308;2023-09-08T17:14:33;27.10;99.90
52397;DHT22;38322;53.108;6.308;2023-09-08T17:17:00;27.00;99.90
52397;DHT22;38322;53.108;6.308;2023-09-08T17:19:26;26.90;99.90
52397;DHT22;38322;53.108;6.308;2023-09-08T17:21:52;26.80;99.90
52397;DHT22;38322;53.108;6.308;2023-09-08T17:24:18;26.70;99.90
52397;DHT22;38322;53.108;6.308;2023-09-08T17:26:44;26.60;99.90
52397;DHT22;38322;53.108;6.308;2023-09-08T17:29:10;26.50;99.90
52397;DHT22;38322;53.108;6.308;2023-09-08T17:31:36;26.40;99.90
52397;DHT22;38322;53.108;6.308;2023-09-08T17:34:02;26.30;99.90
52397;DHT22;38322;53.108;6.308;2023-09-08T17:36:27;26.20;99.90
52397;DHT22;38322;53.108;6.308;2023-09-08T17:38:53;26.10;99.90
52397;DHT22;38322;53.108;6.308;2023-09-08T17:41:19;26.00;99.90
52397;DHT22;38322;53.108;6.308;2023-09-08T17:43:45;25.90;99.90
52397;DHT22;38322;53.108;6.308;2023-09-08T17:46:12;25.80;99.90
52397;DHT22;38322;53.108;6.308;2023-09-08T17:48:37;25.80;99.90
52397;DHT22;38322;53.108;6.308;2023-09-08T17:51:03;25.70;99.90
52397;DHT22;38322;53.108;6.308;2023-09-08T17:53:29;25.60;99.90
52397;DHT22;38322;53.108;6.308;2023-09-08T17:56:01;25.50;99.90
52397;DHT22;38322;53.108;6.308;2023-09-08T17:58:27;25.50;99.90
52397;DHT22;38322;53.108;6.308;2023-09-08T18:00:53;25.30;99.90
52397;DHT22;38322;53.108;6.308;2023-09-08T18:03:19;25.30;99.90
52397;DHT22;38322;53.108;6.308;2023-09-08T18:05:45;25.20;99.90
52397;DHT22;38322;53.108;6.308;2023-09-08T18:08:10;25.10;99.90
52397;DHT22;38322;53.108;6.308;2023-09-08T18:10:39;25.00;99.90
52397;DHT22;38322;53.108;6.308;2023-09-08T18:13:05;24.90;99.90
52397;DHT22;38322;53.108;6.308;2023-09-08T18:15:30;24.80;99.90
52397;DHT22;38322;53.108;6.308;2023-09-08T18:17:56;24.60;99.90
52397;DHT22;38322;53.108;6.308;2023-09-08T18:20:22;24.50;99.90
52397;DHT22;38322;53.108;6.308;2023-09-08T18:22:48;24.40;99.90
52397;DHT22;38322;53.108;6.308;2023-09-08T18:25:14;24.40;99.90
52397;DHT22;38322;53.108;6.308;2023-09-08T18:27:40;24.30;99.90
52397;DHT22;38322;53.108;6.308;2023-09-08T18:30:06;24.20;99.90
52397;DHT22;38322;53.108;6.308;2023-09-08T18:32:32;24.10;99.90
52397;DHT22;38322;53.108;6.308;2023-09-08T18:34:59;24.00;99.90
52397;DHT22;38322;53.108;6.308;2023-09-08T18:37:25;23.90;99.90
52397;DHT22;38322;53.108;6.308;2023-09-08T18:39:51;23.80;99.90
52397;DHT22;38322;53.108;6.308;2023-09-08T18:42:17;23.70;99.90
52397;DHT22;38322;53.108;6.308;2023-09-08T18:44:42;23.70;99.90
52397;DHT22;38322;53.108;6.308;2023-09-08T18:47:09;23.60;99.90
52397;DHT22;38322;53.108;6.308;2023-09-08T18:49:35;23.60;99.90
52397;DHT22;38322;53.108;6.308;2023-09-08T18:52:01;23.50;99.90
52397;DHT22;38322;53.108;6.308;2023-09-08T18:54:28;23.40;99.90
52397;DHT22;38322;53.108;6.308;2023-09-08T18:56:55;23.30;99.90
52397;DHT22;38322;53.108;6.308;2023-09-08T18:59:21;23.30;99.90
52397;DHT22;38322;53.108;6.308;2023-09-08T19:01:47;23.20;99.90
52397;DHT22;38322;53.108;6.308;2023-09-08T19:04:13;23.10;99.90
52397;DHT22;38322;53.108;6.308;2023-09-08T19:06:39;23.00;99.90
52397;DHT22;38322;53.108;6.308;2023-09-08T19:09:05;22.90;99.90
52397;DHT22;38322;53.108;6.308;2023-09-08T19:11:31;22.80;99.90
52397;DHT22;38322;53.108;6.308;2023-09-08T19:13:57;22.80;99.90
52397;DHT22;38322;53.108;6.308;2023-09-08T19:16:23;22.60;99.90
52397;DHT22;38322;53.108;6.308;2023-09-08T19:18:48;22.40;99.90
52397;DHT22;38322;53.108;6.308;2023-09-08T19:21:14;22.30;99.90
52397;DHT22;38322;53.108;6.308;2023-09-08T19:23:40;22.40;99.90
52397;DHT22;38322;53.108;6.308;2023-09-08T19:26:06;22.30;99.90
52397;DHT22;38322;53.108;6.308;2023-09-08T19:28:33;22.30;99.90
52397;DHT22;38322;53.108;6.308;2023-09-08T19:30:59;22.20;99.90
52397;DHT22;38322;53.108;6.308;2023-09-08T19:33:25;22.10;99.90
52397;DHT22;38322;53.108;6.308;2023-09-08T19:35:51;22.10;99.90
52397;DHT22;38322;53.108;6.308;2023-09-08T19:38:17;22.00;99.90
52397;DHT22;38322;53.108;6.308;2023-09-08T19:40:43;22.00;99.90
52397;DHT22;38322;53.108;6.308;2023-09-08T19:43:10;21.90;99.90
52397;DHT22;38322;53.108;6.308;2023-09-08T19:45:36;22.00;99.90
52397;DHT22;38322;53.108;6.308;2023-09-08T19:48:03;21.90;99.90
52397;DHT22;38322;53.108;6.308;2023-09-08T19:50:29;21.90;99.90
52397;DHT22;38322;53.108;6.308;2023-09-08T19:52:55;21.90;99.90
52397;DHT22;38322;53.108;6.308;2023-09-08T19:55:21;21.80;99.90
52397;DHT22;38322;53.108;6.308;2023-09-08T19:57:47;21.80;99.90
52397;DHT22;38322;53.108;6.308;2023-09-08T20:00:13;21.80;99.90
